SAWP/PMQ METAR and TAF weather

Enter ICAO airport designator
Station Type Date Time Source
SAWP METAR 2019/07/11 15:40 UTC NOAA

SAWP 111540Z 14002KT 5000 FG BKN001 01/01 Q1011


Station Type Date Time Source
SAWP Decoded METAR 2019/07/11 15:40 UTC NOAA

Perito Moreno Aerodrome, Argentina (SAWP) 46-31S 071-01W 429M
Jul 11, 2019 - 11:40 AM EDT / 2019.07.11 1540 UTC
Wind: from the SE (140 degrees) at 2 MPH (2 KT):0
Visibility: 3 mile(s):0
Sky conditions: mostly cloudy
Weather: fog
Temperature: 33 F (1 C)
Dew Point: 33 F (1 C)
Relative Humidity: 100%
Pressure (altimeter): 29.85 in. Hg (1011 hPa)
ob: SAWP 111540Z 14002KT 5000 FG BKN001 01/01 Q1011
cycle: 15

Station Type Date Time Source
SAWP TAF UTC NOAA

Error!

Example: see airport list